Weather observations for the past three days for
Altus, Altus/Quartz Mountain Regional Airport
Imperial (Metric)
Date Time (cdt) Wind (mph) Vis. (mi.) Weather Sky Cond. Temperature (ºF) Relative Humidity Wind Chill (°F) Heat Index (°F) Pressure Precipitation (in)
Air Dwpt 6 hour altimeter (in) sea level (mb) 1 hr 3 hr 6 hr
Max. Min.
07 15:55 W 10 10.00 Fair CLR 77 37.4 24% 77 29.97 0.0
07 15:35 Vrbl 6 G 12 10.00 Fair CLR 75.2 37.4 25% 77 29.98 0.0
07 15:15 W 8 10.00 Fair CLR 75.2 37.4 25% 77 29.99 0.0
07 14:35 Vrbl 7 G 15 10.00 Fair CLR 73.4 39.2 29% 30.02 0.0
07 14:15 Calm 10.00 Fair CLR 71.6 39.2 31% 30.03 0.0
07 13:55 Vrbl 7 10.00 Fair CLR 71.6 39.2 31% 30.04 0.0
07 13:35 W 9 10.00 Fair CLR 71.6 41 33% 30.05 0.0
07 13:15 Vrbl 6 G 12 10.00 Fair CLR 69.8 41 35% 30.07 0.0
07 12:55 SW 8 G 14 10.00 Fair CLR 68 41 38% 30.08 0.0
07 12:15 Vrbl 5 G 12 10.00 Fair CLR 66.2 39.2 37% 30.1 0.0
07 11:55 Vrbl 5 G 13 10.00 Fair CLR 66.2 41 40% 30.11 0.0
07 11:35 W 8 G 14 10.00 Fair CLR 64.4 39.2 40% 30.12 0.0
07 10:50 Vrbl 5 10.00 Fair CLR 60.8 39.2 45% 30.13 0.0
07 10:35 W 6 10.00 Fair CLR 60.8 39.2 45% 30.14 0.0
07 10:15 Calm 10.00 Fair CLR 59 39.2 48% 30.15 0.0
07 09:55 Calm 10.00 Fair CLR 59 39.2 48% 30.15 0.0
07 09:35 Calm 10.00 Fair CLR 57.2 39.2 51% 30.16 0.0
07 09:15 N 6 10.00 Fair CLR 57.2 42.8 59% 30.16 0.0
07 08:55 N 8 10.00 Fair CLR 55.4 42.8 63% 30.16 0.0
07 08:35 N 9 10.00 Fair CLR 53.6 42.8 67% 30.16 0.0
07 08:15 N 9 10.00 Fair CLR 51.8 42.8 72% 30.16 0.0
07 07:55 N 12 10.00 Fair CLR 50 42.8 76% 46 30.16 0.0
07 07:35 N 9 10.00 Fair CLR 48.2 41 76% 45 30.16 0.0
07 07:15 N 8 10.00 Fair CLR 44.6 39.2 81% 41 30.15 0.0
07 06:55 N 8 10.00 Fair CLR 42.8 37.4 81% 39 30.15 0.0
07 06:35 N 9 10.00 Fair CLR 42.8 37.4 81% 38 30.14 0.0
07 05:55 N 8 10.00 Fair CLR 42.8 37.4 81% 39 30.14 0.0
07 05:33 N 8 10.00 Fair CLR 44.6 37.4 76% 41 30.13 0.0
07 05:15 N 8 10.00 Fair CLR 44.6 37.4 76% 41 30.13 0.0
07 04:55 N 9 10.00 Fair CLR 42.8 37.4 81% 38 30.13 0.0
07 04:35 N 8 10.00 Fair CLR 42.8 37.4 81% 39 30.13 0.0
07 04:15 NW 6 10.00 Fair CLR 44.6 37.4 76% 42 30.13 0.0
07 03:55 N 8 10.00 Fair CLR 44.6 37.4 76% 41 30.13 0.0
07 03:32 NW 6 10.00 Fair CLR 46.4 37.4 71% 44 30.13 0.0
07 03:10 Calm 10.00 Fair CLR 46.4 37.4 71% 30.12 0.0
07 02:55 N 7 10.00 Fair CLR 46.4 37.4 71% 43 30.12 0.0
07 02:35 N 7 10.00 Fair CLR 48.2 37.4 66% 46 30.11 0.0
07 02:15 N 9 G 15 10.00 Fair CLR 50 37.4 62% 47 30.13 0.0
07 01:51 N 9 10.00 Fair CLR 48.2 37.4 66% 45 30.13 0.0
07 01:35 N 7 10.00 Fair CLR 50 37.4 62% 48 30.13 0.0
07 01:15 N 9 10.00 Fair CLR 50 37.4 62% 47 30.13 0.0
07 00:55 N 9 10.00 Fair CLR 51.8 37.4 58% 30.13 0.0
07 00:35 N 10 10.00 Fair CLR 51.8 37.4 58% 30.12 0.0
07 00:15 N 12 10.00 Fair CLR 51.8 39.2 62% 30.12 0.0
06 23:35 NE 10 10.00 Fair CLR 53.6 39.2 58% 30.12 0.0
06 23:15 NE 8 10.00 Fair CLR 53.6 39.2 58% 30.11 0.0
06 22:55 NE 10 10.00 Fair CLR 55.4 39.2 55% 30.09 0.0
06 22:35 NE 9 10.00 Fair CLR 55.4 39.2 55% 30.08 0.0
06 22:15 NE 8 10.00 Fair CLR 55.4 39.2 55% 30.06 0.0
06 21:55 NE 8 10.00 Fair CLR 57.2 39.2 51% 30.05 0.0
06 21:37 NE 9 10.00 Fair CLR 59 39.2 48% 30.04 0.0
06 20:57 NE 9 10.00 Fair CLR 60.8 39.2 45% 30.03 0.0
06 20:35 NE 9 G 15 10.00 Fair CLR 60.8 39.2 45% 30.02 0.0
06 20:15 NE 13 10.00 Fair CLR 62.6 39.2 42% 30 0.0
06 19:58 NE 15 10.00 Fair CLR 64.4 39.2 40% 30 0.0
06 19:35 NE 10 G 17 10.00 Fair CLR 66.2 39.2 37% 30 0.0
06 19:15 NE 14 G 20 10.00 Fair CLR 66.2 39.2 37% 29.99 0.0
06 18:55 NE 14 10.00 Fair CLR 66.2 39.2 37% 29.99 0.0
06 18:35 NE 14 10.00 Fair CLR 68 39.2 35% 29.98 0.0
06 18:11 NE 10 G 17 10.00 A Few Clouds FEW060 68 39.2 35% 29.99 0.0
06 17:55 N 14 10.00 Fair CLR 66.2 39.2 37% 29.99 0.0
06 17:35 N 12 G 22 10.00 Fair CLR 68 39.2 35% 29.98 0.0
06 17:15 NE 12 G 21 10.00 Fair CLR 69.8 41 35% 29.98 0.0
06 16:55 NE 12 10.00 Fair CLR 69.8 39.2 33% 29.97 0.0
06 16:35 E 12 10.00 Fair CLR 68 41 38% 29.97 0.0
06 16:15 NE 8 G 21 10.00 Fair CLR 68 41 38% 29.98 0.0
06 15:55 NE 13 10.00 Fair CLR 68 41 38% 29.98 0.0
06 15:35 NE 13 G 18 10.00 A Few Clouds FEW050 68 41 38% 29.99 0.0
06 15:15 N 9 G 18 10.00 Partly Cloudy SCT050 66.2 41 40% 30 0.0
06 14:55 N 8 G 18 10.00 Partly Cloudy SCT048 66.2 42.8 43% 30 0.0
06 14:38 NE 12 G 18 10.00 A Few Clouds FEW044 66.2 42.8 43% 30.01 0.0
06 14:15 NE 13 10.00 Partly Cloudy SCT044 66.2 42.8 43% 30.01 0.0
06 13:55 N 12 G 17 10.00 Mostly Cloudy BKN043 64.4 42.8 46% 30.01 0.0
06 13:35 NE 8 G 16 10.00 Partly Cloudy SCT041 64.4 42.8 46% 30.02 0.0
06 13:15 N 12 G 18 10.00 Partly Cloudy SCT040 62.6 42.8 49% 30.02 0.0
06 12:55 N 14 10.00 Mostly Cloudy BKN039 62.6 41 45% 30.03 0.0
06 12:36 E 10 G 17 10.00 Mostly Cloudy BKN037 62.6 42.8 49% 30.04 0.0
06 12:16 NE 8 G 20 10.00 Partly Cloudy SCT036 60.8 42.8 52% 30.04 0.0
06 11:52 E 12 G 17 10.00 A Few Clouds FEW032 60.8 42.8 52% 30.04 0.0
06 11:30 NE 13 G 20 10.00 Partly Cloudy SCT030 57.2 41 55% 30.05 0.0
06 11:15 NE 14 10.00 Mostly Cloudy BKN029 57.2 42.8 59% 30.05 0.0
06 10:55 NE 14 10.00 Mostly Cloudy BKN029 57.2 42.8 59% 30.05 0.0
06 10:35 NE 16 G 23 10.00 Partly Cloudy SCT028 SCT140 57.2 41 55% 30.06 0.0
06 10:15 NE 17 G 24 10.00 Mostly Cloudy BKN140 55.4 41 59% 30.05 0.0
06 09:58 NE 20 10.00 Overcast OVC150 53.6 41 63% 30.04 0.0
06 09:35 NE 21 10.00 Overcast and Breezy OVC140 53.6 41 63% 30.03 0.0
06 09:15 NE 17 10.00 Overcast OVC140 51.8 41 67% 30.03 0.0
06 08:55 NE 20 10.00 Overcast OVC140 51.8 41 67% 30.01 0.0
06 08:35 NE 15 G 23 10.00 Mostly Cloudy BKN140 50 41 71% 45 30.01 0.0
06 08:15 NE 17 10.00 A Few Clouds FEW140 50 41 71% 45 30.02 0.0
06 07:55 NE 16 G 22 10.00 Mostly Cloudy BKN150 50 41 71% 45 30.01 0.0
06 07:27 NE 13 10.00 Overcast OVC150 48.2 41 76% 43 30.02 0.0
06 07:15 N 13 10.00 Overcast OVC150 48.2 41 76% 43 30.01 0.0
06 06:55 NE 13 10.00 Overcast SCT042 OVC150 48.2 41 76% 43 29.99 0.0
06 06:31 NE 13 10.00 Overcast BKN041 OVC150 50 41 71% 46 29.99 0.0
06 06:12 NE 10 G 18 10.00 Overcast BKN040 OVC150 50 41 71% 46 29.98 0.0
06 05:55 NE 18 G 24 10.00 Overcast OVC039 50 41 71% 44 29.97 0.0
06 05:35 NE 14 G 20 10.00 Overcast OVC037 50 39.2 67% 45 29.97 0.0
06 05:17 NE 17 10.00 Overcast OVC036 50 39.2 67% 45 29.96 0.0
06 04:55 NE 17 10.00 Overcast OVC032 50 37.4 62% 45 29.97 0.0
06 04:35 NE 20 10.00 Overcast OVC032 50 37.4 62% 44 29.97 0.0
06 04:12 NE 17 10.00 Overcast OVC030 50 37.4 62% 45 29.96 0.0
06 03:55 NE 17 10.00 Overcast OVC028 50 37.4 62% 45 29.96 0.0
06 03:35 NE 14 10.00 Overcast OVC028 50 37.4 62% 45 29.96 0.0
06 03:15 NE 13 10.00 Overcast OVC029 50 39.2 67% 46 29.96 0.0
06 02:57 NE 15 10.00 Overcast OVC027 50 39.2 67% 45 29.95 0.0
06 02:35 NE 10 G 18 10.00 Overcast OVC024 50 41 71% 46 29.95 0.0
06 02:15 NE 12 G 21 10.00 Overcast OVC021 50 41 71% 46 29.93 0.0
06 01:55 NE 17 10.00 Overcast OVC020 50 42.8 76% 45 29.91 0.0
06 01:35 NE 16 G 23 10.00 Overcast OVC019 50 42.8 76% 45 29.92 0.0
06 01:15 NE 14 G 23 10.00 Overcast OVC019 50 42.8 76% 45 29.91 0.0
06 00:55 NE 15 G 23 10.00 Overcast OVC020 50 42.8 76% 45 29.91 0.0
06 00:35 NE 18 10.00 Overcast OVC020 50 42.8 76% 44 29.91 0.0
06 00:15 NE 17 G 24 10.00 Overcast OVC020 50 42.8 76% 45 29.91 0.0
05 23:55 NE 14 G 24 10.00 Overcast OVC020 50 42.8 76% 45 29.92 0.0
05 23:35 NE 16 10.00 Overcast OVC021 51.8 42.8 72% 29.92 0.0
05 23:15 NE 17 G 24 10.00 Overcast OVC023 51.8 42.8 72% 29.91 0.0
05 22:55 NE 14 G 21 10.00 Mostly Cloudy BKN024 51.8 42.8 72% 29.9 0.0
05 22:35 NE 14 G 20 10.00 A Few Clouds FEW025 51.8 42.8 72% 29.89 0.0
05 22:15 NE 10 G 20 10.00 A Few Clouds FEW026 51.8 42.8 72% 29.89 0.0
05 21:55 NE 10 10.00 Fair CLR 51.8 42.8 72% 29.88 0.0
05 21:35 NE 14 10.00 Fair CLR 51.8 44.6 77% 29.87 0.0
05 21:15 NE 13 10.00 Fair CLR 51.8 44.6 77% 29.86 0.0
05 20:55 NE 15 10.00 Fair CLR 53.6 44.6 72% 29.85 0.0
05 20:35 NE 15 10.00 Fair CLR 53.6 42.8 67% 29.85 0.0
05 20:15 NE 16 10.00 Fair CLR 53.6 42.8 67% 29.83 0.0
05 19:55 NE 18 G 24 10.00 Fair CLR 55.4 42.8 63% 29.81 0.0
05 19:35 NE 22 10.00 A Few Clouds and Breezy FEW180 FEW240 55.4 42.8 63% 29.8 0.0
05 19:15 NE 21 10.00 Partly Cloudy and Breezy SCT180 57.2 42.8 59% 29.8 0.0
05 18:55 NE 20 G 26 10.00 Partly Cloudy FEW035 SCT180 57.2 44.6 63% 29.8 0.0
05 18:35 N 18 10.00 Overcast OVC033 59 44.6 59% 29.81 0.0
05 18:15 NE 15 10.00 Overcast OVC030 59 44.6 59% 29.82 0.0
05 17:55 NE 14 G 22 10.00 Overcast OVC029 59 46.4 63% 29.83 0.0
05 17:35 NE 16 10.00 Overcast OVC029 59 46.4 63% 29.82 0.0
05 17:15 N 15 G 23 10.00 Overcast OVC028 59 46.4 63% 29.83 0.0
05 16:55 NE 16 10.00 Overcast OVC028 59 46.4 63% 29.82 0.0
05 16:35 NE 18 10.00 Overcast OVC027 59 46.4 63% 29.81 0.0
05 16:15 N 18 G 25 10.00 Overcast OVC025 60.8 46.4 59% 29.81 0.0
05 15:55 N 21 10.00 Overcast and Breezy OVC023 60.8 48.2 63% 29.81 0.0
05 15:35 N 21 10.00 Overcast and Breezy OVC024 60.8 48.2 63% 29.8 0.0
05 15:15 N 20 G 29 10.00 Overcast OVC023 60.8 48.2 63% 29.79 0.0
05 14:55 N 23 10.00 Overcast and Breezy BKN026 BKN040 OVC170 60.8 48.2 63% 29.8 0.0
05 14:35 N 23 10.00 Mostly Cloudy and Breezy BKN030 BKN041 BKN170 62.6 48.2 60% 29.79 0.0
05 14:15 N 14 G 20 10.00 Overcast OVC031 62.6 48.2 60% 29.81 0.0
05 13:55 N 17 10.00 Overcast OVC032 62.6 48.2 60% 29.8 0.0
05 13:35 N 15 G 24 10.00 Mostly Cloudy BKN031 BKN150 BKN170 62.6 46.4 56% 29.81 0.0
05 13:15 N 25 10.00 Mostly Cloudy and Breezy FEW030 SCT150 BKN170 64.4 46.4 52% 29.77 0.0
05 12:55 N 24 G 30 10.00 Mostly Cloudy and Breezy SCT030 BKN200 64.4 46.4 52% 29.76 0.0
05 12:35 N 23 10.00 Overcast and Breezy OVC029 64.4 46.4 52% 29.76 0.0
05 12:15 N 23 10.00 Overcast and Breezy OVC028 64.4 46.4 52% 29.78 0.0
05 11:55 N 22 10.00 Overcast and Breezy OVC026 64.4 46.4 52% 29.76 0.0
05 11:35 N 21 G 28 10.00 Mostly Cloudy and Breezy BKN025 BKN140 64.4 48.2 56% 29.75 0.0
05 11:16 N 24 10.00 Mostly Cloudy and Breezy BKN023 BKN150 64.4 48.2 56% 29.72 0.0
05 10:55 N 23 G 31 10.00 Mostly Cloudy and Breezy BKN022 BKN170 64.4 50 60% 29.71 0.0
05 10:35 N 25 10.00 Mostly Cloudy and Breezy BKN023 66.2 50 56% 29.71 0.0
05 10:15 N 23 G 30 10.00 Overcast and Breezy OVC022 66.2 50 56% 29.7 0.0
05 09:56 N 20 G 26 10.00 Overcast OVC022 66.2 53.6 64% 29.7 0.0
05 09:30 N 26 G 32 10.00 Mostly Cloudy and Windy BKN021 68 55.4 64% 29.67 0.0
05 09:13 N 24 10.00 Partly Cloudy and Breezy SCT020 68 57.2 69% 29.66 0.0
05 08:58 N 24 G 32 10.00 A Few Clouds and Breezy FEW020 68 57.2 69% 29.65 0.0
05 08:15 N 15 10.00 Fair CLR 66.2 42.8 43% 29.61 0.0
05 07:50 W 12 10.00 Fair CLR 62.6 41 45% 29.6 0.0
05 07:30 W 6 10.00 A Few Clouds FEW150 62.6 39.2 42% 29.58 0.0
05 06:59 NW 8 10.00 Mostly Cloudy BKN150 62.6 39.2 42% 29.57 0.0
05 06:01 Calm 10.00 Fair CLR 64.4 39.2 40% 29.54 0.0
05 05:12 S 6 10.00 Fair CLR 62.6 41 45% 29.52 0.0
05 04:35 S 7 10.00 Fair CLR 64.4 41 43% 29.52 0.0
05 04:15 S 8 10.00 Fair CLR 66.2 42.8 43% 29.52 0.0
05 03:46 S 10 10.00 Fair CLR 68 42.8 40% 29.53 0.0
05 03:37 S 12 10.00 Fair CLR 69.8 44.6 40% 29.53 0.0
05 03:15 S 12 10.00 Fair CLR 69.8 46.4 43% 29.52 0.0
05 02:55 S 9 10.00 Fair CLR 69.8 51.8 53% 29.53 0.0
05 02:35 S 10 10.00 Fair CLR 71.6 50 47% 29.53 0.0
05 02:15 S 9 10.00 Fair CLR 71.6 50 47% 29.54 0.0
05 01:55 S 9 10.00 Fair CLR 73.4 50 44% 29.54 0.0
05 01:35 S 10 10.00 Fair CLR 73.4 53.6 50% 29.55 0.0
05 01:15 S 10 10.00 Fair CLR 73.4 55.4 53% 29.56 0.0
05 00:51 S 10 10.00 A Few Clouds FEW240 75.2 57.2 54% 78 29.56 0.0
05 00:38 S 12 10.00 A Few Clouds FEW230 75.2 57.2 54% 78 29.56 0.0
05 00:16 S 14 10.00 Mostly Cloudy BKN230 77 57.2 51% 79 29.56 0.0
04 23:37 S 16 10.00 A Few Clouds FEW240 78.8 59 51% 80 29.56 0.0
04 23:08 S 17 10.00 Fair CLR 78.8 59 51% 80 29.57 0.0
04 22:26 S 18 G 28 10.00 Fair CLR 80.6 59 48% 81 29.57 0.0
04 22:15 S 22 G 28 10.00 Fair and Breezy CLR 80.6 57.2 45% 81 29.56 0.0
04 21:55 S 24 10.00 Fair and Breezy CLR 82.4 57.2 42% 82 29.55 0.0
04 21:35 S 22 G 29 10.00 Fair and Breezy CLR 82.4 57.2 42% 82 29.55 0.0
04 21:15 S 23 G 31 10.00 Partly Cloudy and Breezy FEW120 SCT140 SCT160 84.2 55.4 37% 83 29.55 0.0
04 20:55 S 22 10.00 Overcast and Breezy BKN120 BKN140 OVC160 86 51.8 31% 84 29.54 0.0
04 20:35 S 15 10.00 Overcast BKN130 OVC150 87.8 46.4 24% 85 29.53 0.0
04 20:15 S 17 10.00 Mostly Cloudy SCT130 SCT150 BKN200 87.8 46.4 24% 85 29.53 0.0
04 19:55 S 18 G 24 10.00 Partly Cloudy FEW130 SCT200 89.6 46.4 22% 86 29.53 0.0
04 19:32 SW 21 G 29 10.00 Mostly Cloudy and Breezy SCT120 BKN140 BKN170 91.4 46.4 21% 88 29.53 0.0
04 19:15 S 21 G 26 10.00 Mostly Cloudy and Breezy FEW120 SCT140 BKN220 91.4 46.4 21% 88 29.53 0.0
04 18:55 S 23 G 32 10.00 Partly Cloudy and Breezy FEW150 SCT220 91.4 44.6 20% 88 29.54 0.0
04 18:35 SW 24 G 30 10.00 Partly Cloudy and Breezy FEW130 SCT150 SCT220 93.2 44.6 19% 89 29.54 0.0
04 18:06 W 17 G 28 10.00 Mostly Cloudy BKN130 BKN150 95 37.4 13% 90 29.54 0.0
04 17:55 SW 25 G 33 10.00 Overcast and Breezy BKN130 OVC150 95 37.4 13% 90 29.54 0.0
04 17:33 SW 20 10.00 Partly Cloudy FEW140 SCT160 95 37.4 13% 90 29.54 0.0
04 17:15 SW 15 10.00 A Few Clouds FEW120 FEW140 95 39.2 14% 91 29.55 0.0
04 16:55 SW 18 G 28 7.00 Partly Cloudy SCT120 SCT140 95 39.2 14% 91 29.55 0.0
04 16:35 SW 15 G 24 10.00 Mostly Cloudy BKN120 BKN140 95 39.2 14% 91 29.56 0.0
Date Time (cdt) Wind (mph) Vis. (mi.) Weather Sky Cond. Air Dwpt Max. Min. Relative Humidity Wind Chill (°F) Heat Index (°F) altimeter (in) sea level (mb) 1 hr 3 hr 6 hr
6 hour
Temperature (ºF) Pressure Precipitation (in)